Mise à jour:  Vendredi, 16 février 2007, 17h59 (UTC+4)
Trajectoire complète du système 07 07 CYCLONE tropical très intense GAFILO
Date et Heure
en UTC
(soit H+4
à La Réunion)
Longit.


(°Est)
Latitude


(°Sud)
Intensité
Dvorak
analysée
(1.0/8.0)

Type de système
analysé

Pression
minimale
estimée
(hPa)
Vent moyen
sur 10'
maxi estimé
(noeud,km/h)
Rafales
maximales
associées
(noeud,km/h)
01/03/2004 12:00 72.37 11.67 1.5 Perturbation tropicale 1005 20 kt, 37 km/h 28 kt, 52 km/h
01/03/2004 18:00 72.45 12.21 1.5 Perturbation tropicale 1004 20 kt, 37 km/h 28 kt, 52 km/h
02/03/2004 00:00 71.57 12.67 1.5 Zone perturbée 1003 25 kt, 46 km/h 35 kt, 65 km/h
02/03/2004 06:00 70.88 13.01 1.5 Perturbation tropicale 1003 25 kt, 46 km/h 35 kt, 65 km/h
02/03/2004 12:00 69.69 13.80 1.5 Perturbation tropicale 1002 25 kt, 46 km/h 35 kt, 65 km/h
02/03/2004 18:00 67.60 13.83 2.0 Perturbation tropicale 1000 25 kt, 46 km/h 35 kt, 65 km/h
03/03/2004 00:00 65.38 13.58 2.5 DEPRESSION tropicale 998 30 kt, 55 km/h 42 kt, 78 km/h
03/03/2004 06:00 63.74 13.34 3.0 TEMPETE tropicale moderée 992 40 kt, 74 km/h 56 kt, 104 km/h
03/03/2004 12:00 61.89 12.86 3.5 Forte TEMPETE tropicale 987 45 kt, 83 km/h 63 kt, 117 km/h
03/03/2004 18:00 61.04 12.59 3.5 Forte TEMPETE tropicale 984 50 kt, 92 km/h 70 kt, 130 km/h
04/03/2004 00:00 60.31 12.25 3.5 Forte TEMPETE tropicale 980 53 kt, 98 km/h 74 kt, 138 km/h
04/03/2004 06:00 59.60 12.24 4.0 Forte TEMPETE tropicale 978 55 kt, 101 km/h 77 kt, 143 km/h
04/03/2004 12:00 58.87 12.58 4.5 CYCLONE tropical 970 65 kt, 120 km/h 91 kt, 169 km/h
04/03/2004 18:00 58.00 12.90 4.5 CYCLONE tropical 970 65 kt, 120 km/h 91 kt, 169 km/h
05/03/2004 00:00 57.33 13.12 4.5 CYCLONE tropical 965 70 kt, 129 km/h 98 kt, 182 km/h
05/03/2004 06:00 56.67 13.39 5.0 CYCLONE tropical 960 75 kt, 138 km/h 105 kt, 195 km/h
05/03/2004 12:00 55.90 13.98 5.0 CYCLONE tropical 950 83 kt, 153 km/h 117 kt, 216 km/h
05/03/2004 18:00 55.08 14.27 6.0 CYCLONE tropical intense 930 100 kt, 185 km/h 141 kt, 261 km/h
06/03/2004 00:00 54.09 14.51 6.5 CYCLONE tropical intense 915 110 kt, 203 km/h 155 kt, 287 km/h
06/03/2004 06:00 53.34 14.63 7.0 CYCLONE tropical très intense 900 120 kt, 222 km/h 169 kt, 313 km/h
06/03/2004 12:00 52.50 14.78 7.0 CYCLONE tropical très intense 895 125 kt, 231 km/h 176 kt, 326 km/h
06/03/2004 18:00 51.59 14.87 7.0 CYCLONE tropical très intense 895 125 kt, 231 km/h 176 kt, 326 km/h
07/03/2004 00:00 50.49 15.10 7.0 CYCLONE tropical très intense 905 120 kt, 222 km/h 169 kt, 313 km/h
07/03/2004 06:00 49.46 15.29   DEPRESSION sur terre 955 80 kt, 148 km/h 112 kt, 208 km/h
07/03/2004 12:00 47.60 16.11   DEPRESSION sur terre 970 75 kt, 138 km/h 105 kt, 195 km/h
07/03/2004 18:00 46.42 16.90   DEPRESSION sur terre 980 70 kt, 129 km/h 98 kt, 182 km/h
08/03/2004 00:00 45.47 17.35   DEPRESSION sur terre 988 65 kt, 120 km/h 91 kt, 169 km/h
08/03/2004 06:00 44.05 17.90   DEPRESSION sur terre 992 50 kt, 92 km/h 70 kt, 130 km/h
08/03/2004 12:00 43.22 18.35 3.0 TEMPETE tropicale moderée 990 45 kt, 83 km/h 63 kt, 117 km/h
08/03/2004 18:00 42.65 18.75 3.0 TEMPETE tropicale moderée 988 45 kt, 83 km/h 63 kt, 117 km/h
09/03/2004 00:00 42.16 19.38 3.0 TEMPETE tropicale moderée 987 45 kt, 83 km/h 63 kt, 117 km/h
09/03/2004 06:00 42.20 19.67 3.0 TEMPETE tropicale moderée 987 45 kt, 83 km/h 63 kt, 117 km/h
09/03/2004 12:00 42.55 19.99 3.5 Forte TEMPETE tropicale 984 50 kt, 92 km/h 70 kt, 130 km/h
09/03/2004 18:00 43.40 20.85 3.5 Forte TEMPETE tropicale 980 55 kt, 101 km/h 77 kt, 143 km/h
10/03/2004 00:00 44.29 21.70   DEPRESSION sur terre 983 45 kt, 83 km/h 63 kt, 117 km/h
10/03/2004 06:00 44.97 22.55   DEPRESSION sur terre 985 40 kt, 74 km/h 56 kt, 104 km/h
10/03/2004 12:00 45.49 23.24   DEPRESSION sur terre 987 37 kt, 68 km/h 52 kt, 96 km/h
10/03/2004 18:00 45.64 23.68   DEPRESSION sur terre 988 35 kt, 64 km/h 49 kt, 91 km/h
11/03/2004 00:00 45.42 24.07   DEPRESSION sur terre 988 35 kt, 64 km/h 49 kt, 91 km/h
11/03/2004 06:00 45.05 23.84   DEPRESSION sur terre 990 30 kt, 55 km/h 42 kt, 78 km/h
11/03/2004 12:00 44.90 23.04   DEPRESSION sur terre 992 27 kt, 50 km/h 38 kt, 70 km/h
11/03/2004 18:00 45.06 22.51   DEPRESSION sur terre 993 27 kt, 50 km/h 38 kt, 70 km/h
12/03/2004 00:00 45.33 22.10   DEPRESSION sur terre 994 25 kt, 46 km/h 35 kt, 65 km/h
12/03/2004 06:00 45.68 21.83   DEPRESSION sur terre 995 25 kt, 46 km/h 35 kt, 65 km/h
12/03/2004 12:00 46.55 22.16   DEPRESSION sur terre 996 25 kt, 46 km/h 35 kt, 65 km/h
12/03/2004 18:00 47.25 22.53   DEPRESSION sur terre 998 25 kt, 46 km/h 35 kt, 65 km/h
13/03/2004 00:00 47.72 22.81   DEPRESSION sur terre 1000 25 kt, 46 km/h 35 kt, 65 km/h
13/03/2004 06:00 48.23 23.11 1.5 Perturbation tropicale 1001 20 kt, 37 km/h 28 kt, 52 km/h
13/03/2004 12:00 49.24 23.58 1.5 Perturbation tropicale 1001 20 kt, 37 km/h 28 kt, 52 km/h
13/03/2004 18:00 51.11 24.20 1.5 Perturbation tropicale 1001 20 kt, 37 km/h 28 kt, 52 km/h
14/03/2004 00:00 53.09 24.90 2.0 Perturbation tropicale 1000 25 kt, 46 km/h 35 kt, 65 km/h
14/03/2004 06:00 55.01 25.62 2.5 DEPRESSION sub-tropicale 999 30 kt, 55 km/h 42 kt, 78 km/h
14/03/2004 12:00 56.77 26.35 2.5 DEPRESSION sub-tropicale 999 30 kt, 55 km/h 42 kt, 78 km/h
14/03/2004 18:00 58.33 27.07 3.0 DEPRESSION sub-tropicale 998 35 kt, 64 km/h 49 kt, 91 km/h
15/03/2004 00:00 60.62 27.89 3.0 DEPRESSION sub-tropicale 998 35 kt, 64 km/h 49 kt, 91 km/h
15/03/2004 06:00 62.36 28.07 2.5 DEPRESSION sub-tropicale 1000 30 kt, 55 km/h 42 kt, 78 km/h
15/03/2004 12:00 63.90 27.90 2.5 DEPRESSION sub-tropicale 1000 30 kt, 55 km/h 42 kt, 78 km/h
15/03/2004 18:00 66.14 27.60   DEPRESSION extra-tropicale 1002 30 kt, 55 km/h 42 kt, 78 km/h
16/03/2004 00:00 67.92 27.23   DEPRESSION extra-tropicale 1004 30 kt, 55 km/h 42 kt, 78 km/h
16/03/2004 06:00 69.34 26.87   DEPRESSION extra-tropicale 1006 25 kt, 46 km/h 35 kt, 65 km/h
16/03/2004 12:00 69.34 26.16   DEPRESSION extra-tropicale 1006 25 kt, 46 km/h 35 kt, 65 km/h
16/03/2004 18:00 68.72 25.84   DEPRESSION extra-tropicale 1007 25 kt, 46 km/h 35 kt, 65 km/h
17/03/2004 00:00 67.71 25.61   DEPRESSION extra-tropicale 1007 25 kt, 46 km/h 35 kt, 65 km/h
17/03/2004 06:00 66.38 25.35   DEPRESSION extra-tropicale 1008 25 kt, 46 km/h 35 kt, 65 km/h
17/03/2004 12:00 64.89 25.14   DEPRESSION extra-tropicale 1008 25 kt, 46 km/h 35 kt, 65 km/h
17/03/2004 18:00 63.34 24.99   DEPRESSION se comblant 1010 20 kt, 37 km/h 28 kt, 52 km/h
18/03/2004 00:00 61.62 24.83   DEPRESSION se comblant 1010 20 kt, 37 km/h 28 kt, 52 km/h
18/03/2004 06:00 60.11 24.68   DEPRESSION se comblant 1012 20 kt, 37 km/h 28 kt, 52 km/h
Retour